Time;durP1;ratioP1;P1;durP2;ratioP2;P2;SDS_P1;SDS_P2;PMS_P1;PMS_P2;Temp;Humidity;BMP_temperature;BMP_pressure;BME280_temperature;BME280_humidity;BME280_pressure;Samples;Min_cycle;Max_cycle;Signal;HPM_P1;HPM_P2
2023/06/03 00:01:41;;;;;;;;;;;21.90;46.10;;;;;;5050307;28;19974;-74
2023/06/03 00:04:08;;;;;;;;;;;21.90;46.30;;;;;;5056146;28;19928;-74
2023/06/03 00:06:35;;;;;;;;;;;21.80;46.30;;;;;;5049988;28;20022;-74
2023/06/03 00:09:03;;;;;;;;;;;21.80;46.30;;;;;;5053243;28;19957;-74
2023/06/03 00:11:30;;;;;;;;;;;21.70;46.60;;;;;;5055485;28;19933;-74
2023/06/03 00:13:56;;;;;;;;;;;21.70;46.50;;;;;;5052386;28;19979;-75
2023/06/03 00:16:23;;;;;;;;;;;21.60;46.80;;;;;;5056459;28;19928;-75
2023/06/03 00:18:49;;;;;;;;;;;21.60;46.80;;;;;;5057808;28;20386;-74
2023/06/03 00:21:16;;;;;;;;;;;21.60;46.80;;;;;;5063877;28;19932;-74
2023/06/03 00:23:45;;;;;;;;;;;21.50;46.90;;;;;;5065331;28;19929;-74
2023/06/03 00:26:13;;;;;;;;;;;21.50;47.20;;;;;;5063404;28;19928;-75
2023/06/03 00:28:40;;;;;;;;;;;21.50;47.20;;;;;;5070484;28;20418;-75
2023/06/03 00:31:06;;;;;;;;;;;21.40;47.30;;;;;;5060328;28;19974;-74
2023/06/03 00:33:33;;;;;;;;;;;21.40;47.30;;;;;;5061986;28;19932;-73
2023/06/03 00:35:59;;;;;;;;;;;21.30;47.40;;;;;;5058499;28;19928;-75
2023/06/03 00:38:26;;;;;;;;;;;21.30;47.50;;;;;;5052189;28;19951;-74
2023/06/03 00:40:52;;;;;;;;;;;21.30;47.60;;;;;;5055558;28;20386;-74
2023/06/03 00:43:20;;;;;;;;;;;21.30;47.70;;;;;;5058911;28;19951;-74
2023/06/03 00:45:47;;;;;;;;;;;21.20;47.80;;;;;;5053782;28;19936;-74
2023/06/03 00:48:14;;;;;;;;;;;21.20;48.00;;;;;;5051739;28;19932;-74
2023/06/03 00:50:41;;;;;;;;;;;21.20;48.10;;;;;;5050545;28;20055;-75
2023/06/03 00:53:08;;;;;;;;;;;21.10;48.10;;;;;;5053211;28;20017;-75
2023/06/03 00:55:35;;;;;;;;;;;21.10;48.20;;;;;;5055322;28;20308;-75
2023/06/03 00:58:02;;;;;;;;;;;21.00;48.20;;;;;;5052698;28;20011;-74
2023/06/03 01:00:30;;;;;;;;;;;21.00;48.30;;;;;;5053483;28;19940;-74
2023/06/03 01:02:57;;;;;;;;;;;21.00;48.50;;;;;;5051110;28;19933;-74
2023/06/03 01:05:23;;;;;;;;;;;20.90;48.60;;;;;;5054166;28;20054;-75
2023/06/03 01:07:53;;;;;;;;;;;20.90;48.80;;;;;;5057238;28;19994;-75
2023/06/03 01:10:22;;;;;;;;;;;20.90;48.80;;;;;;5053218;28;19928;-75
2023/06/03 01:12:52;;;;;;;;;;;20.80;49.00;;;;;;5047742;28;19981;-74
2023/06/03 01:15:20;;;;;;;;;;;20.80;49.10;;;;;;5054946;28;19978;-75
2023/06/03 01:17:49;;;;;;;;;;;20.80;49.30;;;;;;5055184;28;19936;-74
2023/06/03 01:20:17;;;;;;;;;;;20.70;49.20;;;;;;5049676;28;19963;-75
2023/06/03 01:22:44;;;;;;;;;;;20.60;49.20;;;;;;5050611;28;20050;-74
2023/06/03 01:25:15;;;;;;;;;;;20.60;49.20;;;;;;5049233;28;20848;-74
2023/06/03 01:27:42;;;;;;;;;;;20.60;49.20;;;;;;5057872;28;19929;-75
2023/06/03 01:30:10;;;;;;;;;;;20.50;49.20;;;;;;5055423;28;19935;-74
2023/06/03 01:32:37;;;;;;;;;;;20.50;49.30;;;;;;5052918;28;19932;-74
2023/06/03 01:35:04;;;;;;;;;;;20.50;49.40;;;;;;5056857;28;19925;-74
2023/06/03 01:37:30;;;;;;;;;;;20.50;49.50;;;;;;5056856;28;19981;-74
2023/06/03 01:39:57;;;;;;;;;;;20.40;49.30;;;;;;5056488;28;19932;-75
2023/06/03 01:42:25;;;;;;;;;;;20.40;49.40;;;;;;5058688;28;20234;-75
2023/06/03 01:44:52;;;;;;;;;;;20.30;49.70;;;;;;5071824;28;20567;-74
2023/06/03 01:47:19;;;;;;;;;;;20.30;49.50;;;;;;5064977;28;19928;-74
2023/06/03 01:49:45;;;;;;;;;;;20.30;49.80;;;;;;5058729;28;19996;-74
2023/06/03 01:52:12;;;;;;;;;;;20.20;49.70;;;;;;5055716;28;19994;-74
2023/06/03 01:54:39;;;;;;;;;;;20.20;49.80;;;;;;5064236;28;20417;-75
2023/06/03 01:57:06;;;;;;;;;;;20.20;49.90;;;;;;5064625;28;20011;-74
2023/06/03 01:59:35;;;;;;;;;;;20.10;49.90;;;;;;5062519;28;19928;-75
2023/06/03 02:02:02;;;;;;;;;;;20.10;50.00;;;;;;5068537;28;19936;-75
2023/06/03 02:04:28;;;;;;;;;;;20.00;50.10;;;;;;5064257;28;19941;-74
2023/06/03 02:06:55;;;;;;;;;;;20.00;50.10;;;;;;5066285;28;19929;-75
2023/06/03 02:09:24;;;;;;;;;;;20.00;50.10;;;;;;5065109;28;20014;-74
2023/06/03 02:11:51;;;;;;;;;;;19.90;50.20;;;;;;5067691;28;19935;-74
2023/06/03 02:14:18;;;;;;;;;;;19.90;50.30;;;;;;5063169;28;19936;-75
2023/06/03 02:16:46;;;;;;;;;;;19.90;50.30;;;;;;5066467;28;19996;-74
2023/06/03 02:19:14;;;;;;;;;;;19.90;50.40;;;;;;5063361;28;20292;-74
2023/06/03 02:21:42;;;;;;;;;;;19.80;50.40;;;;;;5069253;28;19982;-75
2023/06/03 02:24:09;;;;;;;;;;;19.80;50.50;;;;;;5062630;28;19928;-73
2023/06/03 02:26:36;;;;;;;;;;;19.70;50.40;;;;;;5066394;28;19928;-75
2023/06/03 02:29:02;;;;;;;;;;;19.70;50.60;;;;;;5068575;28;19928;-75
2023/06/03 02:31:29;;;;;;;;;;;19.70;50.60;;;;;;5063335;28;20381;-74
2023/06/03 02:33:57;;;;;;;;;;;19.60;50.70;;;;;;5063428;28;19928;-75
2023/06/03 02:36:23;;;;;;;;;;;19.60;50.70;;;;;;5063855;28;19989;-74
2023/06/03 02:38:50;;;;;;;;;;;19.60;50.80;;;;;;5070217;28;19928;-74
2023/06/03 02:41:16;;;;;;;;;;;19.60;50.90;;;;;;5064695;28;19978;-74
2023/06/03 02:43:43;;;;;;;;;;;19.50;50.90;;;;;;5069412;28;19932;-74
2023/06/03 02:46:09;;;;;;;;;;;19.60;51.00;;;;;;5064534;28;19932;-75
2023/06/03 02:48:36;;;;;;;;;;;19.50;51.00;;;;;;5059609;28;19940;-74
2023/06/03 02:51:04;;;;;;;;;;;19.40;51.00;;;;;;5065052;28;19928;-74
2023/06/03 02:53:31;;;;;;;;;;;19.40;51.10;;;;;;5066617;28;19982;-74
2023/06/03 02:55:58;;;;;;;;;;;19.40;51.20;;;;;;5064855;28;19940;-74
2023/06/03 02:58:24;;;;;;;;;;;19.30;51.20;;;;;;5055395;28;19963;-74
2023/06/03 03:00:51;;;;;;;;;;;19.30;51.90;;;;;;5065334;28;19932;-74
2023/06/03 03:03:18;;;;;;;;;;;19.30;51.30;;;;;;5061466;28;19932;-73
2023/06/03 03:05:44;;;;;;;;;;;19.30;51.40;;;;;;5052441;28;19929;-74
2023/06/03 03:08:12;;;;;;;;;;;19.30;51.50;;;;;;5054285;28;20031;-74
2023/06/03 03:10:39;;;;;;;;;;;19.20;51.50;;;;;;5061445;28;19928;-73
2023/06/03 03:13:05;;;;;;;;;;;19.20;51.60;;;;;;5057771;28;19935;-74
2023/06/03 03:15:32;;;;;;;;;;;19.20;51.60;;;;;;5064021;28;19939;-74
2023/06/03 03:17:58;;;;;;;;;;;19.10;51.70;;;;;;5069596;28;19932;-74
2023/06/03 03:20:28;;;;;;;;;;;19.10;51.80;;;;;;5057854;28;19929;-74
2023/06/03 03:22:55;;;;;;;;;;;19.10;51.80;;;;;;5066608;28;20337;-74
2023/06/03 03:25:23;;;;;;;;;;;19.00;51.80;;;;;;5059348;28;20504;-74
2023/06/03 03:27:50;;;;;;;;;;;19.00;51.90;;;;;;5065563;28;20018;-73
2023/06/03 03:30:16;;;;;;;;;;;19.00;52.00;;;;;;5055565;28;19932;-74
2023/06/03 03:32:43;;;;;;;;;;;19.00;52.10;;;;;;5050187;28;19935;-74
2023/06/03 03:35:12;;;;;;;;;;;18.90;52.10;;;;;;5054527;28;19936;-75
2023/06/03 03:37:39;;;;;;;;;;;18.90;52.10;;;;;;5048605;28;19928;-75
2023/06/03 03:40:11;;;;;;;;;;;18.90;52.20;;;;;;5056969;28;20039;-75
2023/06/03 03:42:40;;;;;;;;;;;18.90;52.30;;;;;;5050900;28;19939;-74
2023/06/03 03:45:07;;;;;;;;;;;18.80;52.40;;;;;;5051342;28;19929;-74
2023/06/03 03:47:34;;;;;;;;;;;18.80;52.40;;;;;;5055014;28;20008;-74
2023/06/03 03:50:01;;;;;;;;;;;18.80;52.50;;;;;;5044990;28;19939;-75
2023/06/03 03:52:29;;;;;;;;;;;18.80;52.60;;;;;;5055567;28;20010;-74
2023/06/03 03:54:59;;;;;;;;;;;18.70;52.60;;;;;;5054800;28;20019;-74
2023/06/03 03:57:26;;;;;;;;;;;18.70;52.70;;;;;;5053060;28;20379;-74
2023/06/03 03:59:54;;;;;;;;;;;18.70;52.70;;;;;;5061344;28;19928;-75
2023/06/03 04:02:21;;;;;;;;;;;18.60;52.80;;;;;;5068401;28;19939;-74
2023/06/03 04:04:47;;;;;;;;;;;18.60;52.90;;;;;;5054937;28;20580;-73
2023/06/03 04:07:17;;;;;;;;;;;18.60;52.90;;;;;;5053866;28;19929;-74
2023/06/03 04:09:43;;;;;;;;;;;18.60;53.00;;;;;;5061588;28;19928;-75
2023/06/03 04:12:17;;;;;;;;;;;18.60;53.10;;;;;;5067533;28;19927;-75
2023/06/03 04:14:46;;;;;;;;;;;18.50;53.10;;;;;;5058048;28;20338;-75
2023/06/03 04:17:14;;;;;;;;;;;18.50;53.20;;;;;;5061357;28;19928;-75
2023/06/03 04:19:42;;;;;;;;;;;18.50;53.30;;;;;;5058568;28;20005;-74
2023/06/03 04:22:09;;;;;;;;;;;18.50;53.40;;;;;;5052528;28;19928;-75
2023/06/03 04:24:36;;;;;;;;;;;18.40;54.00;;;;;;5067186;28;20390;-74
2023/06/03 04:27:03;;;;;;;;;;;18.40;53.50;;;;;;5068902;28;19932;-75
2023/06/03 04:29:30;;;;;;;;;;;18.40;53.60;;;;;;5058860;28;19928;-75
2023/06/03 04:31:57;;;;;;;;;;;18.30;53.60;;;;;;5060275;28;19932;-73
2023/06/03 04:34:26;;;;;;;;;;;18.30;53.70;;;;;;5052226;28;19928;-74
2023/06/03 04:36:53;;;;;;;;;;;18.30;53.80;;;;;;5061925;28;19958;-75
2023/06/03 04:39:19;;;;;;;;;;;18.30;53.90;;;;;;5069099;28;20398;-74
2023/06/03 04:41:46;;;;;;;;;;;18.30;53.90;;;;;;5068431;28;19935;-74
2023/06/03 04:44:13;;;;;;;;;;;18.20;54.00;;;;;;5058102;28;19928;-75
2023/06/03 04:46:39;;;;;;;;;;;18.20;54.00;;;;;;5063622;28;19928;-74
2023/06/03 04:49:08;;;;;;;;;;;18.20;54.20;;;;;;5065354;28;20022;-74
2023/06/03 04:51:35;;;;;;;;;;;18.20;54.30;;;;;;5065572;28;20139;-74
2023/06/03 04:54:03;;;;;;;;;;;18.20;54.40;;;;;;5066836;28;19958;-75
2023/06/03 04:56:29;;;;;;;;;;;18.10;54.40;;;;;;5066043;28;19933;-74
2023/06/03 04:58:57;;;;;;;;;;;18.10;54.50;;;;;;5072257;28;19934;-74
2023/06/03 05:01:24;;;;;;;;;;;18.10;54.60;;;;;;5068263;28;19935;-74
2023/06/03 05:03:50;;;;;;;;;;;18.00;54.70;;;;;;5068899;28;19932;-74
2023/06/03 05:06:17;;;;;;;;;;;18.00;54.60;;;;;;5065283;28;20005;-74
2023/06/03 05:08:47;;;;;;;;;;;18.00;54.70;;;;;;5058725;28;21600;-74
2023/06/03 05:11:15;;;;;;;;;;;18.00;54.80;;;;;;5062129;28;19928;-74
2023/06/03 05:13:41;;;;;;;;;;;18.00;54.90;;;;;;5060803;28;20020;-74
2023/06/03 05:16:08;;;;;;;;;;;18.00;54.90;;;;;;5063843;28;19932;-74
2023/06/03 05:18:35;;;;;;;;;;;18.00;55.00;;;;;;5068974;28;19978;-73
2023/06/03 05:21:02;;;;;;;;;;;18.00;55.00;;;;;;5055754;28;19933;-75
2023/06/03 05:23:28;;;;;;;;;;;18.00;55.00;;;;;;5064299;28;20002;-74
2023/06/03 05:25:56;;;;;;;;;;;18.00;55.10;;;;;;5073163;28;19935;-74
2023/06/03 05:28:23;;;;;;;;;;;17.90;55.10;;;;;;5063320;28;19928;-74
2023/06/03 05:30:49;;;;;;;;;;;17.90;55.10;;;;;;5062275;28;19936;-74
2023/06/03 05:33:25;;;;;;;;;;;17.90;55.20;;;;;;5056233;28;19985;-74
2023/06/03 05:35:52;;;;;;;;;;;17.90;55.20;;;;;;5054909;28;19929;-74
2023/06/03 05:38:18;;;;;;;;;;;17.90;55.20;;;;;;5063942;28;19932;-74
2023/06/03 05:40:45;;;;;;;;;;;17.90;55.30;;;;;;5059205;28;19932;-75
2023/06/03 05:43:13;;;;;;;;;;;17.90;55.30;;;;;;5059250;28;19963;-74
2023/06/03 05:45:39;;;;;;;;;;;17.90;55.30;;;;;;5059203;28;19995;-73
2023/06/03 05:48:06;;;;;;;;;;;17.90;55.30;;;;;;5062044;28;21120;-73
2023/06/03 05:50:36;;;;;;;;;;;17.90;55.30;;;;;;5053000;28;21454;-74
2023/06/03 05:53:03;;;;;;;;;;;17.90;55.30;;;;;;5058850;28;20550;-74
2023/06/03 05:55:29;;;;;;;;;;;17.90;55.30;;;;;;5059734;28;20574;-74
2023/06/03 05:57:56;;;;;;;;;;;17.90;55.30;;;;;;5058336;28;21223;-74
2023/06/03 06:00:24;;;;;;;;;;;17.90;55.30;;;;;;5058002;28;19929;-74
2023/06/03 06:02:50;;;;;;;;;;;17.90;55.30;;;;;;5059991;28;19932;-74
2023/06/03 06:05:17;;;;;;;;;;;17.90;55.30;;;;;;5065952;28;20116;-74
2023/06/03 06:07:43;;;;;;;;;;;17.90;55.40;;;;;;5058909;28;20013;-74
2023/06/03 06:10:10;;;;;;;;;;;17.90;56.00;;;;;;5064320;28;19999;-74
2023/06/03 06:12:37;;;;;;;;;;;17.90;55.40;;;;;;5057990;28;19986;-74
2023/06/03 06:15:04;;;;;;;;;;;17.90;55.40;;;;;;5059218;28;19928;-74
2023/06/03 06:17:31;;;;;;;;;;;17.90;55.50;;;;;;5060709;28;19936;-74
2023/06/03 06:19:59;;;;;;;;;;;17.90;55.50;;;;;;5049445;28;19929;-74
2023/06/03 06:22:26;;;;;;;;;;;17.90;55.60;;;;;;5054626;28;19929;-74
2023/06/03 06:24:53;;;;;;;;;;;17.90;55.60;;;;;;5054826;28;20301;-74
2023/06/03 06:27:19;;;;;;;;;;;17.90;55.60;;;;;;5047728;28;20411;-74
2023/06/03 06:29:46;;;;;;;;;;;17.90;55.60;;;;;;5057705;28;19932;-73
2023/06/03 06:32:15;;;;;;;;;;;17.90;55.60;;;;;;5054065;28;19929;-74
2023/06/03 06:34:43;;;;;;;;;;;18.00;55.70;;;;;;5058003;28;19959;-74
2023/06/03 06:37:10;;;;;;;;;;;17.90;55.70;;;;;;5054338;28;19940;-74
2023/06/03 06:39:45;;;;;;;;;;;18.00;55.80;;;;;;5052156;28;19924;-74
2023/06/03 06:42:13;;;;;;;;;;;18.00;55.80;;;;;;5054866;28;20306;-74
2023/06/03 06:44:46;;;;;;;;;;;18.00;55.70;;;;;;5055991;28;19940;-74
2023/06/03 06:47:13;;;;;;;;;;;17.90;55.80;;;;;;5058974;28;19928;-74
2023/06/03 06:49:39;;;;;;;;;;;18.00;55.80;;;;;;5056341;28;21377;-74
2023/06/03 06:52:09;;;;;;;;;;;18.00;55.80;;;;;;5056684;28;20314;-74
2023/06/03 06:54:35;;;;;;;;;;;18.00;55.80;;;;;;5056040;28;19932;-74
2023/06/03 06:57:02;;;;;;;;;;;18.00;55.80;;;;;;5057024;28;19997;-74
2023/06/03 06:59:28;;;;;;;;;;;18.00;55.80;;;;;;5054324;28;19937;-74
2023/06/03 07:01:55;;;;;;;;;;;18.00;55.70;;;;;;5053732;28;19959;-73
2023/06/03 07:04:21;;;;;;;;;;;18.00;56.70;;;;;;5055491;28;19929;-73
2023/06/03 07:06:48;;;;;;;;;;;18.10;57.90;;;;;;5055228;28;20428;-75
2023/06/03 07:09:16;;;;;;;;;;;18.00;58.20;;;;;;5052036;28;19932;-74
2023/06/03 07:11:43;;;;;;;;;;;18.00;58.10;;;;;;5064656;28;19929;-75
2023/06/03 07:14:10;;;;;;;;;;;18.00;58.10;;;;;;5059385;28;20033;-75
2023/06/03 07:16:36;;;;;;;;;;;17.90;58.10;;;;;;5064190;28;20390;-74
2023/06/03 07:19:04;;;;;;;;;;;17.90;57.90;;;;;;5067762;28;20275;-75
2023/06/03 07:21:31;;;;;;;;;;;17.90;57.80;;;;;;5068695;28;19935;-75
2023/06/03 07:23:57;;;;;;;;;;;18.00;57.80;;;;;;5057940;28;20673;-74
2023/06/03 07:26:27;;;;;;;;;;;18.00;57.70;;;;;;5063552;28;19973;-74
2023/06/03 07:28:56;;;;;;;;;;;18.00;57.60;;;;;;5064826;28;19928;-74
2023/06/03 07:31:22;;;;;;;;;;;18.00;57.60;;;;;;5063829;28;20008;-73
2023/06/03 07:33:51;;;;;;;;;;;18.00;57.40;;;;;;5064555;28;19932;-74
2023/06/03 07:36:19;;;;;;;;;;;18.00;57.40;;;;;;5066743;28;19931;-74
2023/06/03 07:38:57;;;;;;;;;;;18.10;57.40;;;;;;5066806;28;19970;-75
2023/06/03 07:41:34;;;;;;;;;;;18.10;57.30;;;;;;5066916;28;20011;-75
2023/06/03 07:44:01;;;;;;;;;;;18.20;57.20;;;;;;5060870;28;20360;-74
2023/06/03 07:46:36;;;;;;;;;;;18.10;57.10;;;;;;5066097;28;19936;-74
2023/06/03 07:49:03;;;;;;;;;;;18.20;57.20;;;;;;5063614;28;19958;-74
2023/06/03 07:51:29;;;;;;;;;;;18.20;57.10;;;;;;5065354;28;19939;-74
2023/06/03 07:53:56;;;;;;;;;;;18.20;57.20;;;;;;5066131;28;19936;-74
2023/06/03 07:56:22;;;;;;;;;;;18.30;57.20;;;;;;5062341;28;19928;-74
2023/06/03 07:58:50;;;;;;;;;;;18.30;57.10;;;;;;5066170;28;19940;-74
2023/06/03 08:01:17;;;;;;;;;;;18.30;57.10;;;;;;5071184;28;20369;-74
2023/06/03 08:03:43;;;;;;;;;;;18.30;57.10;;;;;;5061929;28;19928;-75
2023/06/03 08:06:10;;;;;;;;;;;18.30;57.10;;;;;;5058563;28;20471;-75
2023/06/03 08:08:37;;;;;;;;;;;18.40;57.20;;;;;;5058044;28;19951;-74
2023/06/03 08:11:04;;;;;;;;;;;18.40;57.10;;;;;;5062331;28;20673;-74
2023/06/03 08:13:30;;;;;;;;;;;18.40;57.10;;;;;;5057463;28;19933;-74
2023/06/03 08:15:59;;;;;;;;;;;18.40;57.20;;;;;;5060489;28;20614;-74
2023/06/03 08:18:32;;;;;;;;;;;18.50;57.20;;;;;;5066052;28;20344;-75
2023/06/03 08:21:02;;;;;;;;;;;18.50;57.20;;;;;;5063758;28;19981;-75
2023/06/03 08:23:28;;;;;;;;;;;18.50;57.10;;;;;;5061388;28;19932;-74
2023/06/03 08:25:57;;;;;;;;;;;18.50;57.10;;;;;;5057618;28;19935;-74
2023/06/03 08:28:24;;;;;;;;;;;18.60;57.10;;;;;;5061851;28;19932;-74
2023/06/03 08:30:51;;;;;;;;;;;18.60;57.10;;;;;;5060592;28;19940;-75
2023/06/03 08:33:19;;;;;;;;;;;18.60;57.10;;;;;;5061965;28;19982;-75
2023/06/03 08:35:45;;;;;;;;;;;18.70;57.20;;;;;;5063200;28;19932;-75
2023/06/03 08:38:13;;;;;;;;;;;18.70;57.20;;;;;;5065178;28;19943;-74
2023/06/03 08:40:41;;;;;;;;;;;18.70;57.20;;;;;;5061405;28;19940;-74
2023/06/03 08:43:08;;;;;;;;;;;18.80;57.20;;;;;;5066257;28;19967;-74
2023/06/03 08:45:37;;;;;;;;;;;18.80;57.10;;;;;;5061333;28;19978;-75
2023/06/03 08:48:07;;;;;;;;;;;18.80;57.10;;;;;;5062195;28;19932;-75
2023/06/03 08:50:35;;;;;;;;;;;18.90;57.10;;;;;;5061415;28;19986;-75
2023/06/03 08:53:08;;;;;;;;;;;18.90;57.10;;;;;;5069700;28;19975;-74
2023/06/03 08:55:35;;;;;;;;;;;18.90;57.10;;;;;;5063363;28;20374;-74
2023/06/03 08:58:04;;;;;;;;;;;19.00;57.00;;;;;;5059508;28;19982;-75
2023/06/03 09:00:31;;;;;;;;;;;19.00;57.20;;;;;;5062935;28;19932;-75
2023/06/03 09:02:58;;;;;;;;;;;19.00;57.10;;;;;;5047552;28;19928;-74
2023/06/03 09:05:25;;;;;;;;;;;19.10;57.00;;;;;;5061633;28;19928;-75
2023/06/03 09:07:54;;;;;;;;;;;19.10;57.10;;;;;;5056876;28;19936;-74
2023/06/03 09:10:21;;;;;;;;;;;19.10;57.10;;;;;;5056147;28;20775;-75
2023/06/03 09:12:48;;;;;;;;;;;19.20;57.00;;;;;;5053791;28;20023;-74
2023/06/03 09:15:15;;;;;;;;;;;19.20;56.90;;;;;;5056340;28;19925;-75
2023/06/03 09:17:42;;;;;;;;;;;19.20;57.00;;;;;;5059629;28;19924;-75
2023/06/03 09:20:09;;;;;;;;;;;19.20;56.90;;;;;;5059417;28;19985;-75
2023/06/03 09:22:36;;;;;;;;;;;19.30;56.80;;;;;;5060905;28;19928;-76
2023/06/03 09:25:04;;;;;;;;;;;19.30;56.80;;;;;;5058410;28;20409;-75
2023/06/03 09:27:31;;;;;;;;;;;19.40;56.60;;;;;;5062965;28;19929;-74
2023/06/03 09:29:57;;;;;;;;;;;19.50;56.50;;;;;;5068260;28;19928;-74
2023/06/03 09:32:24;;;;;;;;;;;19.50;56.60;;;;;;5058085;28;19939;-75
2023/06/03 09:34:53;;;;;;;;;;;19.50;56.90;;;;;;5068422;28;20033;-75
2023/06/03 09:37:19;;;;;;;;;;;19.60;56.70;;;;;;5071582;28;19924;-75
2023/06/03 09:39:46;;;;;;;;;;;19.60;56.40;;;;;;5068959;28;20708;-75
2023/06/03 09:42:14;;;;;;;;;;;19.70;56.40;;;;;;5063073;28;19974;-75
2023/06/03 09:44:42;;;;;;;;;;;19.70;56.50;;;;;;5057155;28;20495;-75
2023/06/03 09:47:09;;;;;;;;;;;19.80;56.40;;;;;;5063537;28;19936;-74
2023/06/03 09:49:36;;;;;;;;;;;19.90;56.60;;;;;;5058302;28;19935;-73
2023/06/03 09:52:06;;;;;;;;;;;20.30;55.90;;;;;;5055789;28;20417;-73
2023/06/03 09:54:33;;;;;;;;;;;20.90;54.60;;;;;;5054911;28;19929;-74
2023/06/03 09:57:09;;;;;;;;;;;21.10;53.90;;;;;;5062557;28;20387;-74
2023/06/03 09:59:37;;;;;;;;;;;21.40;53.40;;;;;;5055448;28;19986;-72
2023/06/03 10:02:08;;;;;;;;;;;21.50;53.00;;;;;;5058289;28;20013;-74
2023/06/03 10:04:38;;;;;;;;;;;21.70;52.70;;;;;;5057871;28;19924;-73
2023/06/03 10:07:08;;;;;;;;;;;21.90;52.40;;;;;;5059777;28;20379;-73
2023/06/03 10:09:35;;;;;;;;;;;21.90;52.10;;;;;;5049440;28;20316;-73
2023/06/03 10:12:02;;;;;;;;;;;22.00;51.90;;;;;;5062354;28;19932;-73
2023/06/03 10:14:28;;;;;;;;;;;22.20;51.70;;;;;;5055363;28;20065;-73
2023/06/03 10:17:07;;;;;;;;;;;22.30;51.60;;;;;;5060718;28;19933;-74
2023/06/03 10:19:34;;;;;;;;;;;22.40;51.50;;;;;;5054859;28;19936;-73
2023/06/03 10:22:01;;;;;;;;;;;22.40;51.30;;;;;;5056593;28;19928;-74
2023/06/03 10:24:30;;;;;;;;;;;22.50;51.20;;;;;;5052599;28;19958;-73
2023/06/03 10:26:56;;;;;;;;;;;22.60;51.00;;;;;;5052277;28;20294;-73
2023/06/03 10:29:24;;;;;;;;;;;22.70;50.90;;;;;;5057629;28;19925;-73
2023/06/03 10:31:51;;;;;;;;;;;22.80;50.70;;;;;;5054922;28;19978;-74
2023/06/03 10:34:19;;;;;;;;;;;22.80;50.60;;;;;;5054821;28;19929;-74
2023/06/03 10:36:45;;;;;;;;;;;22.90;50.60;;;;;;5055349;28;19924;-74
2023/06/03 10:39:12;;;;;;;;;;;22.90;50.60;;;;;;5056152;28;19929;-73
2023/06/03 10:41:39;;;;;;;;;;;23.00;50.60;;;;;;5058163;28;19928;-74
2023/06/03 10:44:05;;;;;;;;;;;23.10;50.50;;;;;;5053473;28;19932;-73
2023/06/03 10:46:33;;;;;;;;;;;23.10;50.30;;;;;;5057046;28;19932;-74
2023/06/03 10:49:01;;;;;;;;;;;23.20;50.30;;;;;;5056754;28;19974;-73
2023/06/03 10:51:41;;;;;;;;;;;23.20;50.20;;;;;;5059551;28;20429;-73
2023/06/03 10:54:20;;;;;;;;;;;23.30;50.10;;;;;;5052125;28;19935;-73
2023/06/03 10:56:50;;;;;;;;;;;23.40;50.20;;;;;;5055729;28;19928;-73
2023/06/03 10:59:17;;;;;;;;;;;23.40;50.10;;;;;;5058665;28;19939;-73
2023/06/03 11:01:55;;;;;;;;;;;23.50;50.10;;;;;;5054084;28;20455;-73
2023/06/03 11:04:21;;;;;;;;;;;23.50;49.90;;;;;;5059026;28;19932;-73
2023/06/03 11:06:49;;;;;;;;;;;23.60;49.90;;;;;;5045593;28;19932;-73
2023/06/03 11:09:29;;;;;;;;;;;23.60;49.80;;;;;;5050774;28;20012;-74
2023/06/03 11:12:03;;;;;;;;;;;23.70;49.70;;;;;;5057648;28;20609;-74
2023/06/03 11:14:48;;;;;;;;;;;23.70;49.60;;;;;;5051887;28;19928;-75
2023/06/03 11:17:15;;;;;;;;;;;23.80;49.60;;;;;;5048711;28;20020;-73
2023/06/03 11:19:47;;;;;;;;;;;23.80;49.40;;;;;;5055096;28;20413;-74
2023/06/03 11:22:37;;;;;;;;;;;23.90;49.40;;;;;;5050205;28;19928;-73
2023/06/03 11:25:05;;;;;;;;;;;24.00;49.40;;;;;;5050273;28;19928;-74
2023/06/03 11:27:32;;;;;;;;;;;24.00;49.30;;;;;;5066482;28;20030;-73
2023/06/03 11:29:59;;;;;;;;;;;24.10;49.20;;;;;;5057283;28;19928;-72
2023/06/03 11:32:27;;;;;;;;;;;24.10;49.20;;;;;;5049353;28;19929;-74
2023/06/03 11:35:09;;;;;;;;;;;24.20;49.10;;;;;;5058546;28;19928;-73
2023/06/03 11:37:52;;;;;;;;;;;24.20;49.00;;;;;;5046200;28;19928;-74
2023/06/03 11:40:20;;;;;;;;;;;24.30;48.90;;;;;;5052372;28;19932;-73
2023/06/03 11:43:02;;;;;;;;;;;24.30;48.80;;;;;;5057283;28;19958;-73
2023/06/03 11:45:29;;;;;;;;;;;24.40;48.70;;;;;;5052353;28;20006;-74
2023/06/03 11:47:56;;;;;;;;;;;24.50;48.60;;;;;;5061156;28;19928;-74
2023/06/03 11:50:23;;;;;;;;;;;24.50;48.60;;;;;;5057568;28;19932;-74
2023/06/03 11:52:50;;;;;;;;;;;24.60;48.50;;;;;;5057504;28;20363;-73
2023/06/03 11:55:23;;;;;;;;;;;24.60;48.30;;;;;;5041822;28;20556;-73
2023/06/03 11:57:50;;;;;;;;;;;24.70;48.40;;;;;;5054268;28;19928;-73
2023/06/03 12:00:18;;;;;;;;;;;24.70;48.20;;;;;;5052636;28;19929;-73
2023/06/03 12:02:45;;;;;;;;;;;24.80;48.20;;;;;;5057216;28;19982;-74
2023/06/03 12:05:12;;;;;;;;;;;24.80;48.20;;;;;;5050206;28;20181;-74
2023/06/03 12:07:39;;;;;;;;;;;24.90;48.10;;;;;;5051293;28;19932;-73
2023/06/03 12:10:06;;;;;;;;;;;24.90;47.90;;;;;;5050748;28;19974;-74
2023/06/03 12:12:33;;;;;;;;;;;25.00;47.90;;;;;;5051499;28;19990;-73
2023/06/03 12:15:04;;;;;;;;;;;25.00;47.80;;;;;;5048256;28;19994;-73
2023/06/03 12:17:31;;;;;;;;;;;25.10;47.70;;;;;;5053993;28;19928;-73
2023/06/03 12:19:57;;;;;;;;;;;25.10;47.60;;;;;;5047722;28;20023;-74
2023/06/03 12:22:25;;;;;;;;;;;25.20;47.60;;;;;;5051057;28;20401;-74
2023/06/03 12:24:52;;;;;;;;;;;25.20;47.50;;;;;;5050425;28;19935;-73
2023/06/03 12:27:21;;;;;;;;;;;25.30;47.40;;;;;;5051499;28;20562;-73
2023/06/03 12:29:51;;;;;;;;;;;25.40;47.50;;;;;;5055500;28;19935;-73
2023/06/03 12:32:18;;;;;;;;;;;25.40;47.30;;;;;;5054317;28;19951;-73
2023/06/03 12:34:45;;;;;;;;;;;25.40;47.10;;;;;;5051857;28;19928;-73
2023/06/03 12:37:13;;;;;;;;;;;25.50;47.20;;;;;;5055724;28;19935;-73
2023/06/03 12:39:41;;;;;;;;;;;25.50;47.10;;;;;;5048763;28;19929;-74
2023/06/03 12:42:08;;;;;;;;;;;25.60;47.00;;;;;;5052026;28;19989;-74
2023/06/03 12:44:41;;;;;;;;;;;25.60;46.90;;;;;;5055830;28;20635;-74
2023/06/03 12:47:09;;;;;;;;;;;25.60;46.80;;;;;;5051738;28;19975;-73
2023/06/03 12:49:36;;;;;;;;;;;25.70;46.90;;;;;;5050966;28;20001;-73
2023/06/03 12:52:12;;;;;;;;;;;25.80;46.90;;;;;;5051640;28;19936;-74
2023/06/03 12:54:38;;;;;;;;;;;25.80;46.80;;;;;;5049203;28;19929;-74
2023/06/03 12:57:06;;;;;;;;;;;25.90;46.80;;;;;;5054384;28;20423;-74
2023/06/03 12:59:33;;;;;;;;;;;25.90;47.00;;;;;;5053521;28;20031;-73
2023/06/03 13:02:00;;;;;;;;;;;25.90;46.80;;;;;;5056664;28;19933;-74
2023/06/03 13:04:28;;;;;;;;;;;26.00;46.60;;;;;;5054834;28;19940;-74
2023/06/03 13:06:54;;;;;;;;;;;26.00;46.70;;;;;;5051169;28;19973;-73
2023/06/03 13:09:21;;;;;;;;;;;26.00;46.70;;;;;;5047329;28;20717;-74
2023/06/03 13:11:47;;;;;;;;;;;26.10;46.80;;;;;;5055902;28;19932;-74
2023/06/03 13:14:14;;;;;;;;;;;26.10;46.60;;;;;;5047337;28;19974;-74
2023/06/03 13:16:40;;;;;;;;;;;26.10;46.80;;;;;;5050883;28;19928;-74
2023/06/03 13:19:08;;;;;;;;;;;26.20;46.70;;;;;;5051010;28;19933;-73
2023/06/03 13:21:35;;;;;;;;;;;26.20;46.80;;;;;;5049046;28;19928;-74
2023/06/03 13:24:02;;;;;;;;;;;26.20;46.90;;;;;;5050767;28;20477;-74
2023/06/03 13:26:28;;;;;;;;;;;26.30;46.30;;;;;;5058263;28;20390;-74
2023/06/03 13:28:55;;;;;;;;;;;26.30;46.40;;;;;;5056165;28;20007;-74
2023/06/03 13:31:21;;;;;;;;;;;26.30;47.00;;;;;;5051985;28;19928;-74
2023/06/03 13:33:48;;;;;;;;;;;26.40;47.00;;;;;;5058170;28;20607;-73
2023/06/03 13:36:15;;;;;;;;;;;26.40;47.20;;;;;;5055743;28;19932;-74
2023/06/03 13:38:43;;;;;;;;;;;26.50;46.70;;;;;;5058765;28;20413;-76
2023/06/03 13:41:09;;;;;;;;;;;26.50;46.60;;;;;;5059059;28;20448;-73
2023/06/03 13:43:36;;;;;;;;;;;26.60;46.60;;;;;;5056652;28;20421;-74
2023/06/03 13:46:02;;;;;;;;;;;26.60;46.40;;;;;;5062275;28;19929;-75
2023/06/03 13:48:29;;;;;;;;;;;26.70;46.20;;;;;;5065882;28;20295;-75
2023/06/03 13:50:56;;;;;;;;;;;26.80;46.20;;;;;;5065530;28;19981;-75
2023/06/03 13:53:23;;;;;;;;;;;26.80;45.70;;;;;;5057216;28;20698;-74
2023/06/03 13:55:51;;;;;;;;;;;26.80;45.30;;;;;;5065495;28;19940;-74
2023/06/03 13:58:17;;;;;;;;;;;26.90;45.30;;;;;;5059087;28;20459;-75
2023/06/03 14:00:44;;;;;;;;;;;27.00;45.70;;;;;;5056650;28;20057;-73
2023/06/03 14:03:11;;;;;;;;;;;27.10;45.20;;;;;;5059193;28;20750;-75
2023/06/03 14:05:38;;;;;;;;;;;27.10;44.80;;;;;;5058783;28;19990;-74
2023/06/03 14:08:04;;;;;;;;;;;27.10;45.20;;;;;;5059028;28;19975;-75
2023/06/03 14:10:31;;;;;;;;;;;27.20;45.60;;;;;;5061107;28;19928;-75
2023/06/03 14:12:59;;;;;;;;;;;27.20;45.30;;;;;;5065942;28;19935;-74
2023/06/03 14:15:26;;;;;;;;;;;27.20;44.70;;;;;;5069206;28;20000;-75
2023/06/03 14:17:52;;;;;;;;;;;27.30;44.30;;;;;;5066956;28;19935;-72
2023/06/03 14:20:19;;;;;;;;;;;27.30;44.40;;;;;;5052923;28;19924;-73